Time;durP1;ratioP1;P1;durP2;ratioP2;P2;SDS_P1;SDS_P2;PMS_P1;PMS_P2;Temp;Humidity;BMP_temperature;BMP_pressure;BME280_temperature;BME280_humidity;BME280_pressure;Samples;Min_cycle;Max_cycle;Signal;HPM_P1;HPM_P2
2023/11/18 00:02:25;;;;;;;83.00;40.03;;;-0.10;99.90;;;;;;5075225;28;20507;-77
2023/11/18 00:04:51;;;;;;;79.25;39.45;;;-0.10;99.90;;;;;;5075571;28;20021;-77
2023/11/18 00:07:17;;;;;;;81.47;39.47;;;-0.10;99.90;;;;;;5075603;28;20430;-76
2023/11/18 00:09:45;;;;;;;83.03;41.78;;;-0.20;99.90;;;;;;5075650;28;20067;-77
2023/11/18 00:12:11;;;;;;;110.55;46.67;;;-0.20;99.90;;;;;;5075299;28;20436;-77
2023/11/18 00:14:37;;;;;;;85.82;41.15;;;-0.20;99.90;;;;;;5075612;28;20492;-77
2023/11/18 00:17:04;;;;;;;81.20;39.72;;;-0.20;99.90;;;;;;5075409;28;20024;-77
2023/11/18 00:19:30;;;;;;;92.50;43.75;;;-0.20;99.90;;;;;;5075426;28;20359;-78
2023/11/18 00:21:55;;;;;;;93.82;43.70;;;-0.20;99.90;;;;;;5075562;28;20025;-76
2023/11/18 00:24:21;;;;;;;93.20;44.08;;;-0.20;99.90;;;;;;5075283;28;20032;-76
2023/11/18 00:26:47;;;;;;;109.35;48.58;;;-0.20;99.90;;;;;;5076231;28;20039;-77
2023/11/18 00:29:12;;;;;;;96.57;44.20;;;-0.20;99.90;;;;;;5075313;28;20119;-77
2023/11/18 00:31:38;;;;;;;85.28;41.60;;;-0.30;99.90;;;;;;5075274;28;20054;-76
2023/11/18 00:34:04;;;;;;;90.90;41.30;;;-0.30;99.90;;;;;;5074781;28;20025;-77
2023/11/18 00:36:29;;;;;;;83.20;41.10;;;-0.30;99.90;;;;;;5075030;28;20086;-77
2023/11/18 00:38:55;;;;;;;100.63;42.85;;;-0.40;99.90;;;;;;5074576;28;20474;-77
2023/11/18 00:41:21;;;;;;;95.13;44.72;;;-0.40;99.90;;;;;;5075212;28;20036;-77
2023/11/18 00:43:47;;;;;;;91.20;42.10;;;-0.40;99.90;;;;;;5074975;28;20067;-77
2023/11/18 00:46:13;;;;;;;94.00;43.83;;;-0.40;99.90;;;;;;5074929;28;20043;-78
2023/11/18 00:48:38;;;;;;;95.80;44.30;;;-0.30;99.90;;;;;;5074427;28;20073;-77
2023/11/18 00:51:05;;;;;;;88.28;42.50;;;-0.30;99.90;;;;;;5074676;28;20028;-77
2023/11/18 00:53:31;;;;;;;102.65;44.92;;;-0.30;99.90;;;;;;5073339;28;20605;-77
2023/11/18 00:55:57;;;;;;;100.20;44.60;;;-0.40;99.90;;;;;;5074595;28;20028;-77
2023/11/18 00:58:22;;;;;;;101.25;44.53;;;-0.40;99.90;;;;;;5074261;28;20497;-78
2023/11/18 01:00:48;;;;;;;102.28;45.10;;;-0.30;99.90;;;;;;5074591;28;20025;-77
2023/11/18 01:03:14;;;;;;;89.32;41.75;;;-0.30;99.90;;;;;;5074422;28;20032;-76
2023/11/18 01:05:39;;;;;;;104.47;44.88;;;-0.30;99.90;;;;;;5074267;28;20397;-76
2023/11/18 01:08:05;;;;;;;142.75;51.30;;;-0.40;99.90;;;;;;5073998;28;20021;-78
2023/11/18 01:10:31;;;;;;;105.90;48.17;;;-0.30;99.90;;;;;;5074332;28;20039;-76
2023/11/18 01:12:57;;;;;;;102.22;44.60;;;-0.40;99.90;;;;;;5073936;28;20045;-77
2023/11/18 01:15:23;;;;;;;81.00;42.65;;;-0.40;99.90;;;;;;5073842;28;20023;-77
2023/11/18 01:17:49;;;;;;;84.90;42.17;;;-0.40;99.90;;;;;;5074175;28;20032;-77
2023/11/18 01:20:20;;;;;;;91.25;43.75;;;-0.40;99.90;;;;;;5074151;28;20035;-77
2023/11/18 01:22:48;;;;;;;95.18;44.65;;;-0.40;99.90;;;;;;5074046;28;20036;-77
2023/11/18 01:25:17;;;;;;;111.80;47.63;;;-0.40;99.90;;;;;;5074374;28;20036;-78
2023/11/18 01:27:46;;;;;;;109.00;46.13;;;-0.50;99.90;;;;;;5073907;28;20044;-79
2023/11/18 01:30:13;;;;;;;100.22;44.53;;;-0.50;99.90;;;;;;5073974;28;20050;-78
2023/11/18 01:32:39;;;;;;;102.68;44.65;;;-0.40;99.90;;;;;;5073861;28;20478;-76
2023/11/18 01:35:05;;;;;;;114.60;48.22;;;-0.40;99.90;;;;;;5073739;28;20024;-77
2023/11/18 01:37:31;;;;;;;113.72;50.08;;;-0.40;99.90;;;;;;5073916;28;20021;-77
2023/11/18 01:39:57;;;;;;;101.60;44.72;;;-0.40;99.90;;;;;;5073823;28;20020;-77
2023/11/18 01:42:23;;;;;;;95.65;42.70;;;-0.40;99.90;;;;;;5073803;28;20032;-77
2023/11/18 01:44:48;;;;;;;93.30;41.95;;;-0.40;99.90;;;;;;5073757;28;20385;-78
2023/11/18 01:47:14;;;;;;;86.93;40.97;;;-0.30;99.90;;;;;;5073568;28;20052;-77
2023/11/18 01:49:41;;;;;;;90.95;41.20;;;-0.30;99.90;;;;;;5073344;28;20052;-77
2023/11/18 01:52:08;;;;;;;88.30;38.95;;;-0.30;99.90;;;;;;5073643;28;20028;-78
2023/11/18 01:54:37;;;;;;;97.93;40.65;;;-0.30;99.90;;;;;;5073519;28;20028;-77
2023/11/18 01:57:05;;;;;;;94.95;40.78;;;-0.20;99.90;;;;;;5073577;28;20064;-76
2023/11/18 01:59:33;;;;;;;87.65;37.90;;;-0.20;99.90;;;;;;5073612;28;20025;-77
2023/11/18 02:01:59;;;;;;;78.88;35.08;;;-0.20;99.90;;;;;;5073474;28;20501;-77
2023/11/18 02:04:26;;;;;;;86.95;38.67;;;-0.20;99.90;;;;;;5072776;28;20519;-77
2023/11/18 02:06:52;;;;;;;84.57;36.88;;;-0.20;99.90;;;;;;5073517;28;20390;-77
2023/11/18 02:09:19;;;;;;;69.07;34.50;;;-0.20;99.90;;;;;;5073466;28;20474;-78
2023/11/18 02:11:54;;;;;;;74.63;34.35;;;-0.10;99.90;;;;;;5073326;28;20513;-77
2023/11/18 02:14:25;;;;;;;70.60;32.42;;;-0.10;99.90;;;;;;5073387;28;20098;-76
2023/11/18 02:16:53;;;;;;;67.90;31.17;;;-0.10;99.90;;;;;;5073297;28;20043;-77
2023/11/18 02:19:21;;;;;;;74.07;33.00;;;-0.10;99.90;;;;;;5073518;28;20378;-77
2023/11/18 02:21:49;;;;;;;73.85;33.83;;;-0.10;99.90;;;;;;5073369;28;20032;-77
2023/11/18 02:24:36;;;;;;;80.88;35.70;;;-0.10;99.90;;;;;;5073482;28;20025;-76
2023/11/18 02:27:03;;;;;;;68.82;32.47;;;-0.20;99.90;;;;;;5073396;28;20412;-77
2023/11/18 02:29:36;;;;;;;84.32;36.30;;;-0.20;99.90;;;;;;5072966;28;20020;-76
2023/11/18 02:32:15;;;;;;;76.03;34.10;;;-0.30;99.90;;;;;;5075373;28;20097;-75
2023/11/18 02:34:48;;;;;;;82.40;35.97;;;-0.10;99.90;;;;;;5081644;28;20025;-77
2023/11/18 02:37:15;;;;;;;82.55;36.03;;;-0.10;99.90;;;;;;5080996;28;20025;-75
2023/11/18 02:39:43;;;;;;;77.38;33.22;;;-0.10;99.90;;;;;;5080931;28;20025;-76
2023/11/18 02:42:12;;;;;;;82.75;35.78;;;-0.10;99.90;;;;;;5080362;28;20043;-76
2023/11/18 02:44:38;;;;;;;73.90;32.75;;;-0.10;99.90;;;;;;5080599;28;20436;-76
2023/11/18 02:47:05;;;;;;;74.13;34.80;;;0.00;99.90;;;;;;5077444;28;20060;-77
2023/11/18 02:49:31;;;;;;;71.57;33.10;;;0.00;99.90;;;;;;5073734;28;20466;-77
2023/11/18 02:51:57;;;;;;;80.75;36.60;;;-0.10;99.90;;;;;;5073433;28;20520;-77
2023/11/18 02:54:23;;;;;;;74.43;33.92;;;-0.10;99.90;;;;;;5073173;28;20517;-77
2023/11/18 02:56:49;;;;;;;79.00;33.85;;;-0.10;99.90;;;;;;5073265;28;20052;-76
2023/11/18 02:59:16;;;;;;;84.45;33.47;;;-0.10;99.90;;;;;;5073525;28;20428;-78
2023/11/18 03:01:41;;;;;;;77.82;33.17;;;0.00;99.90;;;;;;5073264;28;20405;-77
2023/11/18 03:04:08;;;;;;;74.85;31.73;;;0.10;99.90;;;;;;5073105;28;20032;-77
2023/11/18 03:06:35;;;;;;;80.93;32.53;;;0.10;99.90;;;;;;5073129;28;20434;-77
2023/11/18 03:09:02;;;;;;;75.63;33.55;;;0.20;99.90;;;;;;5072960;28;20108;-77
2023/11/18 03:11:31;;;;;;;76.70;33.25;;;0.30;99.90;;;;;;5072789;28;20052;-76
2023/11/18 03:13:56;;;;;;;77.90;31.33;;;0.40;99.90;;;;;;5072339;28;20041;-77
2023/11/18 03:16:24;;;;;;;72.32;31.05;;;0.30;99.90;;;;;;5074569;28;20039;-77
2023/11/18 03:18:50;;;;;;;71.72;31.67;;;0.30;99.90;;;;;;5076523;28;20094;-76
2023/11/18 03:21:16;;;;;;;75.15;31.25;;;0.30;99.90;;;;;;5076270;28;20039;-77
2023/11/18 03:23:42;;;;;;;60.95;28.40;;;0.30;99.90;;;;;;5076640;28;20040;-77
2023/11/18 03:26:10;;;;;;;68.38;30.20;;;0.30;99.90;;;;;;5076306;28;20034;-77
2023/11/18 03:28:36;;;;;;;63.35;28.88;;;0.30;99.90;;;;;;5076309;28;20029;-77
2023/11/18 03:31:03;;;;;;;67.85;31.45;;;0.30;99.90;;;;;;5076011;28;20039;-77
2023/11/18 03:33:29;;;;;;;75.78;31.25;;;0.30;99.90;;;;;;5076033;28;20035;-77
2023/11/18 03:35:55;;;;;;;71.03;29.67;;;0.30;99.90;;;;;;5076190;28;20025;-77
2023/11/18 03:38:21;;;;;;;71.55;30.30;;;0.30;99.90;;;;;;5075792;28;20024;-77
2023/11/18 03:40:47;;;;;;;70.82;30.90;;;0.40;99.90;;;;;;5076104;28;20499;-77
2023/11/18 03:43:13;;;;;;;70.50;30.20;;;0.40;99.90;;;;;;5075678;28;20074;-77
2023/11/18 03:45:40;;;;;;;80.65;30.67;;;0.40;99.90;;;;;;5075997;28;20071;-76
2023/11/18 03:48:06;;;;;;;66.07;29.17;;;0.40;99.90;;;;;;5075981;28;20028;-77
2023/11/18 03:50:33;;;;;;;67.80;30.20;;;0.40;99.90;;;;;;5076160;28;20173;-77
2023/11/18 03:52:59;;;;;;;72.63;30.65;;;0.30;99.90;;;;;;5075719;28;20500;-77
2023/11/18 03:55:25;;;;;;;71.47;29.33;;;0.30;99.90;;;;;;5075799;28;20039;-77
2023/11/18 03:57:52;;;;;;;75.50;30.65;;;0.20;99.90;;;;;;5075786;28;20382;-76
2023/11/18 04:00:19;;;;;;;81.45;31.65;;;0.20;99.90;;;;;;5075599;28;20020;-76
2023/11/18 04:02:45;;;;;;;78.40;29.75;;;0.30;99.90;;;;;;5075682;28;20086;-79
2023/11/18 04:05:12;;;;;;;69.15;30.70;;;0.30;99.90;;;;;;5075528;28;20024;-76
2023/11/18 04:07:38;;;;;;;71.82;29.98;;;0.30;99.90;;;;;;5075811;28;20024;-77
2023/11/18 04:10:06;;;;;;;71.20;30.00;;;0.20;99.90;;;;;;5075486;28;20454;-76
2023/11/18 04:12:32;;;;;;;81.72;29.60;;;0.20;99.90;;;;;;5075051;28;20437;-77
2023/11/18 04:14:57;;;;;;;78.47;30.55;;;0.30;99.90;;;;;;5075417;28;20111;-76
2023/11/18 04:17:25;;;;;;;79.15;31.75;;;0.20;99.90;;;;;;5074955;28;20028;-77
2023/11/18 04:19:51;;;;;;;69.72;30.13;;;0.20;99.90;;;;;;5075098;28;20025;-77
2023/11/18 04:22:18;;;;;;;71.30;29.98;;;0.20;99.90;;;;;;5074945;28;20383;-77
2023/11/18 04:24:45;;;;;;;74.38;31.40;;;0.20;99.90;;;;;;5075065;28;20456;-76
2023/11/18 04:27:10;;;;;;;65.03;28.27;;;0.20;99.90;;;;;;5074675;28;20024;-77
2023/11/18 04:29:37;;;;;;;73.93;29.65;;;0.20;99.90;;;;;;5075128;28;20036;-77
2023/11/18 04:32:03;;;;;;;64.18;27.48;;;0.20;99.90;;;;;;5075392;28;20051;-76
2023/11/18 04:34:28;;;;;;;70.60;28.75;;;0.20;99.90;;;;;;5074569;28;20068;-77
2023/11/18 04:36:54;;;;;;;61.67;27.30;;;0.20;99.90;;;;;;5075057;28;20048;-76
2023/11/18 04:39:25;;;;;;;65.22;29.27;;;0.10;99.90;;;;;;5075205;28;20037;-76
2023/11/18 04:41:50;;;;;;;73.60;29.90;;;0.10;99.90;;;;;;5075138;28;20104;-76
2023/11/18 04:44:16;;;;;;;74.35;27.98;;;0.10;99.90;;;;;;5074882;28;20116;-77
2023/11/18 04:46:42;;;;;;;70.75;28.75;;;0.10;99.90;;;;;;5075100;28;20097;-76
2023/11/18 04:49:08;;;;;;;75.30;27.17;;;0.00;99.90;;;;;;5076683;28;20035;-76
2023/11/18 04:51:33;;;;;;;75.50;28.63;;;-0.10;99.90;;;;;;5098118;28;20009;-77
2023/11/18 04:53:59;;;;;;;66.60;26.88;;;-0.10;99.90;;;;;;5098764;28;20032;-78
2023/11/18 04:56:24;;;;;;;72.55;29.42;;;0.00;99.90;;;;;;5099114;28;20020;-78
2023/11/18 04:58:50;;;;;;;80.53;31.48;;;0.10;99.90;;;;;;5094291;28;20493;-76
2023/11/18 05:01:16;;;;;;;78.30;31.35;;;0.20;99.90;;;;;;5076017;28;20035;-77
2023/11/18 05:03:41;;;;;;;81.30;31.50;;;0.20;99.90;;;;;;5074881;28;20074;-77
2023/11/18 05:06:08;;;;;;;91.93;32.75;;;0.30;99.90;;;;;;5074603;28;20150;-77
2023/11/18 05:08:33;;;;;;;90.43;33.70;;;0.30;99.90;;;;;;5074417;28;20492;-76
2023/11/18 05:10:59;;;;;;;86.38;33.25;;;0.30;99.90;;;;;;5074391;28;20032;-76
2023/11/18 05:13:27;;;;;;;82.85;32.65;;;0.30;99.90;;;;;;5073959;28;20517;-76
2023/11/18 05:15:54;;;;;;;85.38;31.13;;;0.30;99.90;;;;;;5074230;28;20028;-77
2023/11/18 05:18:21;;;;;;;87.82;32.17;;;0.30;99.90;;;;;;5074217;28;20031;-76
2023/11/18 05:20:47;;;;;;;95.50;33.78;;;0.30;99.90;;;;;;5074317;28;20386;-76
2023/11/18 05:23:13;;;;;;;88.80;32.25;;;0.40;99.90;;;;;;5074056;28;20027;-76
2023/11/18 05:25:40;;;;;;;84.45;31.83;;;0.40;99.90;;;;;;5074027;28;20036;-77
2023/11/18 05:28:08;;;;;;;77.03;31.65;;;0.40;99.90;;;;;;5073883;28;20029;-78
2023/11/18 05:30:35;;;;;;;81.70;32.00;;;0.50;99.90;;;;;;5073965;28;20040;-76
2023/11/18 05:33:05;;;;;;;82.90;31.17;;;0.50;99.90;;;;;;5073644;28;20032;-77
2023/11/18 05:35:31;;;;;;;84.72;30.17;;;0.50;99.90;;;;;;5073978;28;20059;-77
2023/11/18 05:37:57;;;;;;;79.80;31.00;;;0.50;99.90;;;;;;5073502;28;20377;-77
2023/11/18 05:40:22;;;;;;;76.40;29.48;;;0.50;99.90;;;;;;5073555;28;20025;-77
2023/11/18 05:42:51;;;;;;;93.53;33.65;;;0.60;99.90;;;;;;5073814;28;20031;-77
2023/11/18 05:45:27;;;;;;;76.25;30.33;;;0.60;99.90;;;;;;5073961;28;20032;-78
2023/11/18 05:47:55;;;;;;;78.20;31.05;;;0.60;99.90;;;;;;5073693;28;20028;-77
2023/11/18 05:50:21;;;;;;;86.43;31.40;;;0.60;99.90;;;;;;5073608;28;20024;-77
2023/11/18 05:52:48;;;;;;;82.80;31.92;;;0.70;99.90;;;;;;5073399;28;20032;-77
2023/11/18 05:55:13;;;;;;;79.70;30.23;;;0.70;99.90;;;;;;5073637;28;20021;-77
2023/11/18 05:57:39;;;;;;;83.35;32.63;;;0.80;99.90;;;;;;5073630;28;20478;-76
2023/11/18 06:00:05;;;;;;;80.75;30.35;;;0.80;99.90;;;;;;5073665;28;20035;-77
2023/11/18 06:02:31;;;;;;;81.35;30.63;;;0.80;99.90;;;;;;5073402;28;20025;-77
2023/11/18 06:04:57;;;;;;;74.97;30.85;;;0.80;99.90;;;;;;5073459;28;20031;-77
2023/11/18 06:07:23;;;;;;;83.10;32.03;;;0.90;99.90;;;;;;5073453;28;20116;-77
2023/11/18 06:09:48;;;;;;;88.78;32.30;;;0.90;99.90;;;;;;5073587;28;20021;-77
2023/11/18 06:12:16;;;;;;;74.50;31.15;;;0.90;99.90;;;;;;5072844;28;20450;-77
2023/11/18 06:14:42;;;;;;;85.20;32.55;;;0.90;99.90;;;;;;5073072;28;20037;-77
2023/11/18 06:17:08;;;;;;;82.28;31.75;;;0.90;99.90;;;;;;5073416;28;20043;-76
2023/11/18 06:19:34;;;;;;;78.65;31.88;;;1.00;99.90;;;;;;5073399;28;20113;-77
2023/11/18 06:22:00;;;;;;;77.22;31.30;;;1.00;99.90;;;;;;5072947;28;20171;-77
2023/11/18 06:24:26;;;;;;;91.80;33.45;;;1.00;99.90;;;;;;5073262;28;20533;-77
2023/11/18 06:26:51;;;;;;;70.25;30.08;;;1.10;99.90;;;;;;5072926;28;20020;-76
2023/11/18 06:29:17;;;;;;;87.80;34.05;;;1.10;99.90;;;;;;5073415;28;20501;-77
2023/11/18 06:31:43;;;;;;;87.80;31.88;;;1.10;99.90;;;;;;5073184;28;20033;-77
2023/11/18 06:34:08;;;;;;;83.10;32.75;;;1.10;99.90;;;;;;5072977;28;20028;-77
2023/11/18 06:36:34;;;;;;;82.90;33.40;;;1.20;99.90;;;;;;5073098;28;20111;-77
2023/11/18 06:39:00;;;;;;;74.78;32.13;;;1.20;99.90;;;;;;5073158;28;20021;-77
2023/11/18 06:41:33;;;;;;;85.82;32.40;;;1.20;99.90;;;;;;5072709;28;20025;-75
2023/11/18 06:44:01;;;;;;;;;;;1.30;99.90;;;;;;5073454;28;20047;-76
2023/11/18 06:46:31;;;;;;;82.88;30.60;;;1.30;99.90;;;;;;5072986;28;19954;-77
2023/11/18 06:48:57;;;;;;;78.72;30.85;;;1.30;99.90;;;;;;5072987;28;20542;-77
2023/11/18 06:51:24;;;;;;;85.90;32.22;;;1.40;99.90;;;;;;5076411;28;20060;-77
2023/11/18 06:53:51;;;;;;;79.03;32.33;;;1.40;99.90;;;;;;5076786;28;20119;-76
2023/11/18 06:56:17;;;;;;;83.57;33.25;;;1.40;99.90;;;;;;5077184;28;20021;-78
2023/11/18 06:58:43;;;;;;;76.68;32.45;;;1.40;99.90;;;;;;5076700;28;20474;-78
2023/11/18 07:01:13;;;;;;;81.45;32.97;;;1.40;99.90;;;;;;5076447;28;20021;-78
2023/11/18 07:03:39;;;;;;;81.55;32.05;;;1.40;99.90;;;;;;5076919;28;20040;-78
2023/11/18 07:06:05;;;;;;;84.43;32.80;;;1.40;99.90;;;;;;5076677;28;20046;-78
2023/11/18 07:08:32;;;;;;;73.30;32.47;;;1.40;99.90;;;;;;5076647;28;20078;-76
2023/11/18 07:10:58;;;;;;;86.43;34.78;;;1.50;99.90;;;;;;5076533;28;20028;-75
2023/11/18 07:13:23;;;;;;;75.68;31.95;;;1.50;99.90;;;;;;5076235;28;20041;-77
2023/11/18 07:15:50;;;;;;;89.65;35.80;;;1.50;99.90;;;;;;5077005;28;20111;-78
2023/11/18 07:18:17;;;;;;;78.90;33.20;;;1.40;99.90;;;;;;5076646;28;20041;-77
2023/11/18 07:20:43;;;;;;;84.20;35.25;;;1.40;99.90;;;;;;5076787;28;20433;-78
2023/11/18 07:23:08;;;;;;;84.70;34.10;;;1.50;99.90;;;;;;5076589;28;20056;-77
2023/11/18 07:25:34;;;;;;;87.20;33.45;;;1.50;99.90;;;;;;5076438;28;20031;-75
2023/11/18 07:28:00;;;;;;;85.68;35.17;;;1.60;99.90;;;;;;5076358;28;20409;-78
2023/11/18 07:30:26;;;;;;;87.85;35.33;;;1.60;99.90;;;;;;5076259;28;20033;-77
2023/11/18 07:32:51;;;;;;;90.97;35.92;;;1.70;99.90;;;;;;5076256;28;20032;-77
2023/11/18 07:35:17;;;;;;;95.85;36.60;;;1.80;99.90;;;;;;5076654;28;20036;-77
2023/11/18 07:37:43;;;;;;;96.80;36.97;;;1.90;99.90;;;;;;5076522;28;20035;-77
2023/11/18 07:40:11;;;;;;;85.68;38.15;;;2.00;99.90;;;;;;5076146;28;20044;-77
2023/11/18 07:42:37;;;;;;;88.65;35.45;;;2.00;99.90;;;;;;5076117;28;20382;-77
2023/11/18 07:45:13;;;;;;;87.20;36.17;;;2.00;99.90;;;;;;5075691;28;20028;-77
2023/11/18 07:47:43;;;;;;;88.60;36.10;;;2.10;99.90;;;;;;5075901;28;20479;-77
2023/11/18 07:50:12;;;;;;;87.82;36.88;;;2.10;99.90;;;;;;5076006;28;20119;-77
2023/11/18 07:52:38;;;;;;;103.40;39.10;;;2.20;99.90;;;;;;5075803;28;20093;-76
2023/11/18 07:55:04;;;;;;;112.15;39.00;;;2.30;99.90;;;;;;5075927;28;20059;-76
2023/11/18 07:57:30;;;;;;;101.75;37.38;;;2.40;99.90;;;;;;5075825;28;20036;-77
2023/11/18 07:59:56;;;;;;;114.30;39.60;;;2.50;99.90;;;;;;5075905;28;20498;-77
2023/11/18 08:02:21;;;;;;;103.07;38.35;;;2.60;99.90;;;;;;5075275;28;20024;-77
2023/11/18 08:04:47;;;;;;;105.00;38.17;;;2.70;99.90;;;;;;5075798;28;20031;-77
2023/11/18 08:07:13;;;;;;;98.97;40.20;;;2.80;99.90;;;;;;5075623;28;20036;-76
2023/11/18 08:09:38;;;;;;;93.03;38.00;;;2.90;99.90;;;;;;5075116;28;20035;-76
2023/11/18 08:12:09;;;;;;;94.90;39.03;;;3.00;99.90;;;;;;5075277;28;20474;-76
2023/11/18 08:14:34;;;;;;;97.40;41.28;;;3.10;99.90;;;;;;5074894;28;20043;-76
2023/11/18 08:17:00;;;;;;;91.88;38.67;;;3.10;99.90;;;;;;5075557;28;20025;-76
2023/11/18 08:19:26;;;;;;;91.03;39.60;;;3.30;99.90;;;;;;5075385;28;20054;-76
2023/11/18 08:21:51;;;;;;;88.10;38.90;;;3.50;99.90;;;;;;5075269;28;20025;-76
2023/11/18 08:24:17;;;;;;;80.45;36.83;;;3.50;99.90;;;;;;5075345;28;20486;-76
2023/11/18 08:26:43;;;;;;;91.95;37.78;;;3.60;99.90;;;;;;5075252;28;20111;-76
2023/11/18 08:29:09;;;;;;;77.05;37.78;;;3.70;99.90;;;;;;5075007;28;20107;-76
2023/11/18 08:31:35;;;;;;;83.72;35.08;;;3.70;99.90;;;;;;5074619;28;20029;-76
2023/11/18 08:34:00;;;;;;;77.53;35.65;;;3.80;99.90;;;;;;5075088;28;20442;-77
2023/11/18 08:36:27;;;;;;;72.07;35.00;;;3.90;99.90;;;;;;5074944;28;20037;-77
2023/11/18 08:38:54;;;;;;;71.78;35.50;;;4.00;99.90;;;;;;5075089;28;20024;-78
2023/11/18 08:41:19;;;;;;;70.90;35.25;;;4.00;99.90;;;;;;5075096;28;20077;-78
2023/11/18 08:43:48;;;;;;;73.88;35.10;;;4.00;99.90;;;;;;5074934;28;20032;-77
2023/11/18 08:46:15;;;;;;;75.78;35.97;;;4.20;99.90;;;;;;5074990;28;20118;-77
2023/11/18 08:48:40;;;;;;;67.90;35.25;;;4.20;99.90;;;;;;5074831;28;20047;-78
2023/11/18 08:51:08;;;;;;;69.18;34.65;;;4.20;99.90;;;;;;5075307;28;20028;-77
2023/11/18 08:53:40;;;;;;;71.40;34.08;;;4.10;99.90;;;;;;5074558;28;20025;-77
2023/11/18 08:56:13;;;;;;;65.82;33.42;;;4.30;99.90;;;;;;5074627;28;20042;-76
2023/11/18 08:58:40;;;;;;;70.25;35.90;;;4.30;99.90;;;;;;5074641;28;20063;-77
2023/11/18 09:01:13;;;;;;;67.57;33.88;;;4.40;99.90;;;;;;5074208;28;20056;-77
2023/11/18 09:03:43;;;;;;;64.68;33.25;;;4.40;99.90;;;;;;5074250;28;20565;-78
2023/11/18 09:06:42;;;;;;;67.95;33.63;;;4.40;99.90;;;;;;5074221;28;20504;-77
2023/11/18 09:08:57;;;;;;;66.32;34.40;;;4.50;99.90;;;;;;5074063;28;20498;-78
2023/11/18 09:11:26;;;;;;;68.75;34.80;;;4.40;99.90;;;;;;5074466;28;20081;-77
2023/11/18 09:13:53;;;;;;;67.60;34.05;;;4.50;99.90;;;;;;5072877;28;20106;-77
2023/11/18 09:16:27;;;;;;;62.13;33.55;;;4.50;99.90;;;;;;5074350;28;20134;-77
2023/11/18 09:18:52;;;;;;;65.05;34.40;;;4.70;99.90;;;;;;5074162;28;20043;-77
2023/11/18 09:21:23;;;;;;;74.95;35.53;;;4.70;99.90;;;;;;5073904;28;20017;-77
2023/11/18 09:23:49;;;;;;;62.35;32.47;;;4.70;99.90;;;;;;5074121;28;20028;-77
2023/11/18 09:26:16;;;;;;;61.97;32.65;;;4.70;99.90;;;;;;5074029;28;20040;-76
2023/11/18 09:28:42;;;;;;;57.22;31.00;;;4.70;99.90;;;;;;5073906;28;20082;-77
2023/11/18 09:31:11;;;;;;;64.78;31.65;;;4.70;99.90;;;;;;5073891;28;20032;-77
2023/11/18 09:33:39;;;;;;;52.42;29.13;;;4.70;99.90;;;;;;5073633;28;20058;-77
2023/11/18 09:36:07;;;;;;;54.90;30.13;;;4.80;99.90;;;;;;5073461;28;20031;-77
2023/11/18 09:38:35;;;;;;;56.28;30.58;;;4.80;99.90;;;;;;5073865;28;20066;-77
2023/11/18 09:41:03;;;;;;;54.78;29.73;;;4.80;99.90;;;;;;5073394;28;20020;-77
2023/11/18 09:43:32;;;;;;;56.70;29.42;;;4.90;99.90;;;;;;5073716;28;20115;-77
2023/11/18 09:46:12;;;;;;;50.22;27.98;;;5.00;99.90;;;;;;5073669;28;20089;-77
2023/11/18 09:48:41;;;;;;;52.72;27.70;;;5.00;99.90;;;;;;5073694;28;20547;-77
2023/11/18 09:51:09;;;;;;;53.47;28.40;;;5.00;99.90;;;;;;5073609;28;20444;-77
2023/11/18 09:53:40;;;;;;;47.67;26.40;;;5.10;99.90;;;;;;5073459;28;20078;-77
2023/11/18 09:56:26;;;;;;;49.13;25.95;;;5.20;99.90;;;;;;5073563;28;20111;-77
2023/11/18 09:59:05;;;;;;;45.35;25.33;;;5.30;99.90;;;;;;5073906;28;20033;-78
2023/11/18 10:01:37;;;;;;;41.95;23.30;;;5.40;99.90;;;;;;5073619;28;20056;-76
2023/11/18 10:04:06;;;;;;;41.27;23.23;;;5.50;99.90;;;;;;5073639;28;20115;-77
2023/11/18 10:06:35;;;;;;;42.17;21.35;;;5.60;99.90;;;;;;5073339;28;20058;-76
2023/11/18 10:09:15;;;;;;;33.63;20.08;;;5.70;99.90;;;;;;5072972;28;20398;-77
2023/11/18 10:11:41;;;;;;;31.42;18.27;;;5.80;99.90;;;;;;5073391;28;20036;-77
2023/11/18 10:14:08;;;;;;;33.10;19.27;;;5.90;99.90;;;;;;5072741;28;20486;-77
2023/11/18 10:16:34;;;;;;;30.35;17.58;;;6.00;99.90;;;;;;5073196;28;20466;-76
2023/11/18 10:19:08;;;;;;;27.80;16.48;;;6.10;99.90;;;;;;5073369;28;20077;-77
2023/11/18 10:21:39;;;;;;;28.27;16.52;;;6.10;99.90;;;;;;5073240;28;20028;-76
2023/11/18 10:24:14;;;;;;;22.23;13.93;;;6.10;99.90;;;;;;5073024;28;20460;-76
2023/11/18 10:26:40;;;;;;;23.92;15.02;;;6.20;99.90;;;;;;5072935;28;20115;-75
2023/11/18 10:29:08;;;;;;;27.25;14.57;;;6.20;99.90;;;;;;5072962;28;20037;-76
2023/11/18 10:31:35;;;;;;;21.75;13.10;;;6.30;99.90;;;;;;5073009;28;20025;-78
2023/11/18 10:34:03;;;;;;;23.40;13.68;;;6.30;99.90;;;;;;5072881;28;20036;-77
2023/11/18 10:36:33;;;;;;;22.13;13.85;;;6.30;99.90;;;;;;5073167;28;20063;-76
2023/11/18 10:39:01;;;;;;;21.67;12.52;;;6.30;99.90;;;;;;5073202;28;20036;-76
2023/11/18 10:41:26;;;;;;;23.02;11.82;;;6.30;99.90;;;;;;5073724;28;20048;-77
2023/11/18 10:44:07;;;;;;;21.58;13.07;;;6.40;99.90;;;;;;5073247;28;20033;-77
2023/11/18 10:46:32;;;;;;;19.63;11.45;;;6.40;99.90;;;;;;5073217;28;20119;-76
2023/11/18 10:48:58;;;;;;;17.98;11.10;;;6.40;99.90;;;;;;5073252;28;20156;-77
2023/11/18 10:51:26;;;;;;;18.33;11.65;;;6.40;99.90;;;;;;5072889;28;20393;-77
2023/11/18 10:53:58;;;;;;;25.77;10.93;;;6.50;99.90;;;;;;5072939;28;20032;-77
2023/11/18 10:56:27;;;;;;;20.52;11.65;;;6.50;99.90;;;;;;5072865;28;20120;-77
2023/11/18 10:58:55;;;;;;;20.80;10.95;;;6.50;99.90;;;;;;5072635;28;20520;-77
2023/11/18 11:01:30;;;;;;;21.55;11.18;;;6.60;99.90;;;;;;5072595;28;20115;-77
2023/11/18 11:03:56;;;;;;;17.70;10.40;;;6.60;99.90;;;;;;5072601;28;20035;-76
2023/11/18 11:06:24;;;;;;;14.00;9.75;;;6.50;99.90;;;;;;5073046;28;20032;-77
2023/11/18 11:08:52;;;;;;;14.80;9.68;;;6.50;99.90;;;;;;5072992;28;20432;-77
2023/11/18 11:11:21;;;;;;;20.55;10.50;;;6.50;99.90;;;;;;5072992;28;20481;-77
2023/11/18 11:13:50;;;;;;;18.88;10.93;;;6.50;99.90;;;;;;5072599;28;20406;-77
2023/11/18 11:16:19;;;;;;;20.15;9.98;;;6.50;99.90;;;;;;5072559;28;20032;-77
2023/11/18 11:18:53;;;;;;;19.50;10.68;;;6.50;99.90;;;;;;5072373;28;20488;-76
2023/11/18 11:21:28;;;;;;;19.08;10.05;;;6.60;99.90;;;;;;5073110;28;20116;-76
2023/11/18 11:24:00;;;;;;;19.00;10.10;;;6.60;99.90;;;;;;5072792;28;20517;-76
2023/11/18 11:26:41;;;;;;;17.73;9.27;;;6.60;99.90;;;;;;5072865;28;20032;-76
2023/11/18 11:32:38;;;;;;;16.33;8.90;;;6.70;99.90;;;;;;5090865;28;20378;-75
2023/11/18 11:35:09;;;;;;;17.63;10.32;;;6.70;99.90;;;;;;5090411;28;20032;-75
2023/11/18 11:37:37;;;;;;;17.35;10.45;;;6.70;99.90;;;;;;5090462;28;20044;-75
2023/11/18 11:40:09;;;;;;;20.33;10.15;;;6.70;99.90;;;;;;5090886;28;20575;-75
2023/11/18 11:42:35;;;;;;;18.98;10.40;;;6.70;99.90;;;;;;5090675;28;20037;-75
2023/11/18 11:45:02;;;;;;;20.30;11.02;;;6.70;99.90;;;;;;5090100;28;20032;-75
2023/11/18 11:47:36;;;;;;;20.10;11.50;;;6.80;99.90;;;;;;5090223;28;20024;-75
2023/11/18 11:50:13;;;;;;;19.42;10.18;;;6.80;99.90;;;;;;5090375;28;20029;-75
2023/11/18 11:52:47;;;;;;;20.02;10.30;;;6.80;99.90;;;;;;5090479;28;20541;-75
2023/11/18 11:55:23;;;;;;;17.02;11.23;;;6.80;99.90;;;;;;5090443;28;20016;-75
2023/11/18 11:57:53;;;;;;;18.58;10.75;;;6.90;99.90;;;;;;5090195;28;20111;-75
2023/11/18 12:00:19;;;;;;;16.77;10.07;;;6.90;99.90;;;;;;5090255;28;20024;-75
2023/11/18 12:02:54;;;;;;;18.83;10.45;;;6.90;99.90;;;;;;5090204;28;20122;-75
2023/11/18 12:05:25;;;;;;;20.70;11.25;;;7.00;99.90;;;;;;5090070;28;20443;-75
2023/11/18 12:07:54;;;;;;;17.90;10.27;;;7.00;99.90;;;;;;5090281;28;20500;-75
2023/11/18 12:10:21;;;;;;;18.20;10.40;;;7.00;99.90;;;;;;5090017;28;20029;-75
2023/11/18 12:12:48;;;;;;;23.27;10.90;;;7.00;99.90;;;;;;5089633;28;20470;-75
2023/11/18 12:15:21;;;;;;;22.40;10.70;;;7.10;99.90;;;;;;5089628;28;20166;-75
2023/11/18 12:20:47;;;;;;;20.73;11.60;;;7.10;99.90;;;;;;5070429;28;20398;-75
2023/11/18 12:23:14;;;;;;;18.92;11.48;;;7.10;99.90;;;;;;5070215;28;20032;-74
2023/11/18 12:25:41;;;;;;;18.80;11.38;;;7.10;99.90;;;;;;5070534;28;20047;-75
2023/11/18 12:28:09;;;;;;;20.45;11.48;;;7.10;99.90;;;;;;5070151;28;20021;-75
2023/11/18 12:33:18;;;;;;;22.73;11.00;;;7.00;99.90;;;;;;5111325;27;20430;-76
2023/11/18 12:39:13;;;;;;;19.77;11.40;;;7.00;99.90;;;;;;5070564;28;20437;-75
2023/11/18 12:41:40;;;;;;;20.25;10.77;;;7.00;99.90;;;;;;5070209;28;20021;-75
2023/11/18 12:44:45;;;;;;;19.33;11.27;;;7.00;99.90;;;;;;5070197;28;20496;-75
2023/11/18 12:47:18;;;;;;;19.20;10.90;;;7.00;99.90;;;;;;5070423;28;20094;-75
2023/11/18 12:49:49;;;;;;;23.23;11.32;;;7.00;99.90;;;;;;5070061;28;20032;-75